createdAt,value
2023-04-15T00:01:49.268Z,72.70
2023-04-15T00:04:16.534Z,72.60
2023-04-15T00:06:43.787Z,72.50
2023-04-15T00:09:11.382Z,72.20
2023-04-15T00:11:38.352Z,72.00
2023-04-15T00:14:06.281Z,72.00
2023-04-15T00:16:33.292Z,72.10
2023-04-15T00:19:00.575Z,73.10
2023-04-15T00:21:29.107Z,72.50
2023-04-15T00:23:56.399Z,72.60
2023-04-15T00:26:23.349Z,72.90
2023-04-15T00:28:50.528Z,72.90
2023-04-15T00:31:17.497Z,72.90
2023-04-15T00:33:44.760Z,72.70
2023-04-15T00:36:11.736Z,72.50
2023-04-15T00:38:39.156Z,72.30
2023-04-15T00:41:06.170Z,72.30
2023-04-15T00:43:33.122Z,72.40
2023-04-15T00:46:02.514Z,72.30
2023-04-15T00:48:29.967Z,72.30
2023-04-15T00:50:57.709Z,72.10
2023-04-15T00:53:24.923Z,71.90
2023-04-15T00:55:51.909Z,72.00
2023-04-15T00:58:19.182Z,72.30
2023-04-15T01:00:46.808Z,72.50
2023-04-15T01:03:15.567Z,72.50
2023-04-15T01:05:42.876Z,72.30
2023-04-15T01:08:09.893Z,72.40
2023-04-15T01:10:37.941Z,72.80
2023-04-15T01:13:05.059Z,73.00
2023-04-15T01:15:32.379Z,72.70
2023-04-15T01:17:59.896Z,72.40
2023-04-15T01:20:27.574Z,72.40
2023-04-15T01:22:56.096Z,72.70
2023-04-15T01:25:33.730Z,73.10
2023-04-15T01:28:01.214Z,73.30
2023-04-15T01:30:28.401Z,73.30
2023-04-15T01:32:55.317Z,73.10
2023-04-15T01:35:22.664Z,72.90
2023-04-15T01:37:52.579Z,72.90
2023-04-15T01:40:19.624Z,73.10
2023-04-15T01:42:47.376Z,73.40
2023-04-15T01:45:15.700Z,73.70
2023-04-15T01:47:42.733Z,74.00
2023-04-15T01:50:10.766Z,73.90
2023-04-15T01:52:38.261Z,73.80
2023-04-15T01:55:06.327Z,73.70
2023-04-15T01:57:33.392Z,73.80
2023-04-15T02:00:01.066Z,73.90
2023-04-15T02:02:28.249Z,74.10
2023-04-15T02:04:56.774Z,74.20
2023-04-15T02:07:24.284Z,74.30
2023-04-15T02:09:51.261Z,74.30
2023-04-15T02:12:19.020Z,74.20
2023-04-15T02:14:46.269Z,74.10
2023-04-15T02:17:13.186Z,74.10
2023-04-15T02:19:43.493Z,74.20
2023-04-15T02:22:13.456Z,74.30
2023-04-15T02:24:40.406Z,74.30
2023-04-15T02:27:07.321Z,74.30
2023-04-15T02:29:34.250Z,74.20
2023-04-15T02:32:01.745Z,74.00
2023-04-15T02:34:28.769Z,73.90
2023-04-15T02:36:57.886Z,73.80
2023-04-15T02:39:25.248Z,73.60
2023-04-15T02:41:52.534Z,73.40
2023-04-15T02:44:20.613Z,73.20
2023-04-15T02:46:52.489Z,73.20
2023-04-15T02:49:19.517Z,73.20
2023-04-15T02:51:49.536Z,73.20
2023-04-15T02:54:17.960Z,73.20
2023-04-15T02:56:44.960Z,73.30
2023-04-15T02:59:12.967Z,73.30
2023-04-15T03:01:40.064Z,73.50
2023-04-15T03:04:09.124Z,73.40
2023-04-15T03:06:36.690Z,73.40
2023-04-15T03:09:04.109Z,73.50
2023-04-15T03:11:36.879Z,73.50
2023-04-15T03:14:03.977Z,73.50
2023-04-15T03:16:35.054Z,73.60
2023-04-15T03:19:02.146Z,73.60
2023-04-15T03:21:29.669Z,73.60
2023-04-15T03:23:57.721Z,73.60
2023-04-15T03:26:30.504Z,73.80
2023-04-15T03:29:03.991Z,74.10
2023-04-15T03:31:31.133Z,74.30
2023-04-15T03:33:58.148Z,74.30
2023-04-15T03:36:25.916Z,74.60
2023-04-15T03:38:53.034Z,74.60
2023-04-15T03:41:19.903Z,74.50
2023-04-15T03:43:46.816Z,74.40
2023-04-15T03:46:13.775Z,74.40
2023-04-15T03:48:40.849Z,74.30
2023-04-15T03:51:07.765Z,74.30
2023-04-15T03:53:34.691Z,74.20
2023-04-15T03:56:01.816Z,74.20
2023-04-15T03:58:29.561Z,74.20
2023-04-15T04:00:56.554Z,74.10
2023-04-15T04:03:23.909Z,74.00
2023-04-15T04:05:51.472Z,74.30
2023-04-15T04:08:19.583Z,74.30
2023-04-15T04:10:46.510Z,74.10
2023-04-15T04:13:13.412Z,74.10
2023-04-15T04:15:40.807Z,74.10
2023-04-15T04:18:07.850Z,74.20
2023-04-15T04:20:34.849Z,74.30
2023-04-15T04:23:01.795Z,74.40
2023-04-15T04:25:28.693Z,74.40
2023-04-15T04:27:55.608Z,74.20
2023-04-15T04:30:23.057Z,74.20
2023-04-15T04:32:51.612Z,74.20
2023-04-15T04:35:18.563Z,74.30
2023-04-15T04:37:45.471Z,74.30
2023-04-15T04:40:13.184Z,74.40
2023-04-15T04:42:40.351Z,74.70
2023-04-15T04:45:08.881Z,75.10
2023-04-15T04:47:35.888Z,75.20
2023-04-15T04:50:03.534Z,75.00
2023-04-15T04:52:30.665Z,74.90
2023-04-15T04:54:57.545Z,74.70
2023-04-15T04:57:24.428Z,74.50
2023-04-15T04:59:51.402Z,74.40
2023-04-15T05:02:18.396Z,74.30
2023-04-15T05:04:45.475Z,74.30
2023-04-15T05:07:12.376Z,74.30
2023-04-15T05:09:39.285Z,74.50
2023-04-15T05:12:06.482Z,74.50
2023-04-15T05:14:33.456Z,74.60
2023-04-15T05:17:00.380Z,74.80
2023-04-15T05:19:27.293Z,74.80
2023-04-15T05:21:54.265Z,74.70
2023-04-15T05:24:21.503Z,74.20
2023-04-15T05:26:48.489Z,73.30
2023-04-15T05:29:15.514Z,72.00
2023-04-15T05:31:43.199Z,70.40
2023-04-15T05:34:11.736Z,69.20
2023-04-15T05:36:38.785Z,66.00
2023-04-15T05:39:05.671Z,64.00
2023-04-15T05:41:32.745Z,61.50
2023-04-15T05:43:59.722Z,59.70
2023-04-15T05:46:27.571Z,58.10
2023-04-15T05:48:56.353Z,56.40
2023-04-15T05:51:23.625Z,54.90
2023-04-15T05:53:50.608Z,53.60
2023-04-15T05:56:17.596Z,52.20
2023-04-15T05:58:44.429Z,51.80
2023-04-15T06:01:11.777Z,50.80
2023-04-15T06:03:39.124Z,49.90
2023-04-15T06:06:06.206Z,49.10
2023-04-15T06:08:33.054Z,47.70
2023-04-15T06:11:00.053Z,46.50
2023-04-15T06:13:27.187Z,45.40
2023-04-15T06:15:54.214Z,44.40
2023-04-15T06:18:21.279Z,43.80
2023-04-15T06:20:48.126Z,43.40
2023-04-15T06:23:14.975Z,43.50
2023-04-15T06:25:41.747Z,43.40
2023-04-15T06:28:08.775Z,42.60
2023-04-15T06:30:36.223Z,41.50
2023-04-15T06:33:05.590Z,41.00
2023-04-15T06:35:32.446Z,40.70
2023-04-15T06:37:59.259Z,40.00
2023-04-15T06:40:26.084Z,39.30
2023-04-15T06:42:52.934Z,38.30
2023-04-15T06:45:20.174Z,37.40
2023-04-15T06:47:47.101Z,36.90
2023-04-15T06:50:14.547Z,36.10
2023-04-15T06:52:41.560Z,35.10
2023-04-15T06:55:08.793Z,34.40
2023-04-15T06:57:35.786Z,33.60
2023-04-15T07:00:03.768Z,33.70
2023-04-15T07:02:30.602Z,33.70
2023-04-15T07:04:57.458Z,33.00
2023-04-15T07:07:24.328Z,32.50
2023-04-15T07:09:53.661Z,31.50
2023-04-15T07:12:21.542Z,31.70
2023-04-15T07:14:49.460Z,30.30
2023-04-15T07:17:16.661Z,31.10
2023-04-15T07:19:43.515Z,31.40
2023-04-15T07:22:10.368Z,31.50
2023-04-15T07:24:37.210Z,31.50
2023-04-15T07:27:04.234Z,31.30
2023-04-15T07:29:31.531Z,30.80
2023-04-15T07:31:58.400Z,30.80
2023-04-15T07:34:25.819Z,30.50
2023-04-15T07:36:52.753Z,30.70
2023-04-15T07:39:19.600Z,30.40
2023-04-15T07:41:46.644Z,30.50
2023-04-15T07:44:13.409Z,30.10
2023-04-15T07:46:40.527Z,29.30
2023-04-15T07:49:07.704Z,29.10
2023-04-15T07:51:34.554Z,28.60
2023-04-15T07:54:01.426Z,28.30
2023-04-15T07:56:28.233Z,28.00
2023-04-15T07:58:55.032Z,28.50
2023-04-15T08:01:21.889Z,28.30
2023-04-15T08:03:48.863Z,27.70
2023-04-15T08:06:15.885Z,28.30
2023-04-15T08:08:43.191Z,28.30
2023-04-15T08:11:10.075Z,28.70
2023-04-15T08:13:36.954Z,29.50
2023-04-15T08:16:21.074Z,29.10
2023-04-15T08:18:48.742Z,28.90
2023-04-15T08:21:16.251Z,28.80
2023-04-15T08:23:44.201Z,29.20
2023-04-15T08:26:11.114Z,29.10
2023-04-15T08:28:38.912Z,29.10
2023-04-15T08:31:06.012Z,29.50
2023-04-15T08:33:33.006Z,29.70
2023-04-15T08:35:59.929Z,29.80
2023-04-15T08:38:26.893Z,29.60
2023-04-15T08:40:53.787Z,30.30
2023-04-15T08:43:22.963Z,29.80
2023-04-15T08:45:51.832Z,29.10
2023-04-15T08:48:19.268Z,29.10
2023-04-15T08:50:47.143Z,28.30
2023-04-15T08:53:15.793Z,28.40
2023-04-15T08:55:44.932Z,28.40
2023-04-15T08:58:12.632Z,28.50
2023-04-15T09:00:40.479Z,28.30
2023-04-15T09:03:08.097Z,27.80
2023-04-15T09:05:38.574Z,27.90
2023-04-15T09:08:05.981Z,27.40
2023-04-15T09:10:34.573Z,27.20
2023-04-15T09:13:02.215Z,26.70
2023-04-15T09:15:30.363Z,27.10
2023-04-15T09:17:57.335Z,27.00
2023-04-15T09:20:24.640Z,27.00
2023-04-15T09:22:52.043Z,26.80
2023-04-15T09:25:21.621Z,26.70
2023-04-15T09:27:52.058Z,27.00
2023-04-15T09:30:18.931Z,27.30
2023-04-15T09:32:53.026Z,27.00
2023-04-15T09:35:20.926Z,27.20
2023-04-15T09:37:48.324Z,27.60
2023-04-15T09:40:15.259Z,27.30
2023-04-15T09:42:57.577Z,26.60
2023-04-15T09:45:25.671Z,27.30
2023-04-15T09:47:54.084Z,27.90
2023-04-15T09:50:21.139Z,27.60
2023-04-15T09:52:48.331Z,27.10
2023-04-15T09:55:16.038Z,27.10
2023-04-15T09:57:44.388Z,27.00
2023-04-15T10:00:11.534Z,27.20
2023-04-15T10:02:40.725Z,27.30
2023-04-15T10:05:08.609Z,26.70
2023-04-15T10:07:35.955Z,26.10
2023-04-15T10:10:03.801Z,26.70
2023-04-15T10:12:31.335Z,27.10
2023-04-15T10:15:05.058Z,26.70
2023-04-15T10:17:37.117Z,26.70
2023-04-15T10:20:05.219Z,27.00
2023-04-15T10:22:33.099Z,26.80
2023-04-15T10:25:02.607Z,26.40
2023-04-15T10:27:29.923Z,26.20
2023-04-15T10:29:57.213Z,25.70
2023-04-15T10:32:25.606Z,25.50
2023-04-15T10:34:54.466Z,25.60
2023-04-15T10:37:22.682Z,25.20
2023-04-15T10:39:49.675Z,25.20
2023-04-15T10:42:17.952Z,24.80
2023-04-15T10:44:44.935Z,24.80
2023-04-15T10:47:13.353Z,25.50
2023-04-15T10:49:45.358Z,25.70
2023-04-15T10:52:12.682Z,25.90
2023-04-15T10:54:39.703Z,25.70
2023-04-15T10:57:09.487Z,26.30
2023-04-15T10:59:37.004Z,26.20
2023-04-15T11:02:05.972Z,26.50
2023-04-15T11:04:51.678Z,26.60
2023-04-15T11:07:33.984Z,26.70
2023-04-15T11:10:01.900Z,27.60
2023-04-15T11:12:36.369Z,27.70
2023-04-15T11:15:22.284Z,27.60
2023-04-15T11:17:49.313Z,27.30
2023-04-15T11:20:16.239Z,27.00
2023-04-15T11:22:52.619Z,27.30
2023-04-15T11:25:37.832Z,27.50
2023-04-15T11:28:06.177Z,28.30
2023-04-15T11:30:37.633Z,28.80
2023-04-15T11:33:09.257Z,29.10
2023-04-15T11:35:36.274Z,30.90
2023-04-15T11:38:08.738Z,33.40
2023-04-15T11:40:35.874Z,35.00
2023-04-15T11:43:08.560Z,33.70
2023-04-15T11:45:36.574Z,33.00
2023-04-15T11:48:07.784Z,32.50
2023-04-15T11:50:35.370Z,32.00
2023-04-15T11:53:04.007Z,31.60
2023-04-15T11:55:31.940Z,31.40
2023-04-15T11:58:11.057Z,31.60
2023-04-15T12:00:39.729Z,31.40
2023-04-15T12:03:20.254Z,32.40
2023-04-15T12:06:08.802Z,34.10
2023-04-15T12:08:54.164Z,35.30
2023-04-15T12:11:21.962Z,36.10
2023-04-15T12:13:49.742Z,36.60
2023-04-15T12:16:17.153Z,37.80
2023-04-15T12:18:45.475Z,39.00
2023-04-15T12:21:12.327Z,39.80
2023-04-15T12:23:40.288Z,41.20
2023-04-15T12:26:07.549Z,41.90
2023-04-15T12:28:35.506Z,40.40
2023-04-15T12:31:07.263Z,40.10
2023-04-15T12:33:34.521Z,40.50
2023-04-15T12:36:01.514Z,41.00
2023-04-15T12:38:28.648Z,41.70
2023-04-15T12:40:55.683Z,42.90
2023-04-15T12:43:22.507Z,44.40
2023-04-15T12:45:49.444Z,46.10
2023-04-15T12:48:16.269Z,47.60
2023-04-15T12:50:43.301Z,48.50
2023-04-15T12:53:10.078Z,47.00
2023-04-15T12:55:36.911Z,46.10
2023-04-15T12:58:03.809Z,45.50
2023-04-15T13:00:30.653Z,45.60
2023-04-15T13:02:57.697Z,45.80
2023-04-15T13:05:24.532Z,45.30
2023-04-15T13:07:51.482Z,45.10
2023-04-15T13:10:18.284Z,45.30
2023-04-15T13:12:46.967Z,45.00
2023-04-15T13:15:13.802Z,44.70
2023-04-15T13:17:40.684Z,45.60
2023-04-15T13:20:08.883Z,46.00
2023-04-15T13:22:35.810Z,46.50
2023-04-15T13:25:02.617Z,46.30
2023-04-15T13:27:29.468Z,47.00
2023-04-15T13:29:56.311Z,47.00
2023-04-15T13:32:23.179Z,47.00
2023-04-15T13:34:50.199Z,46.90
2023-04-15T13:37:17.129Z,46.50
2023-04-15T13:39:44.083Z,45.80
2023-04-15T13:42:10.875Z,45.30
2023-04-15T13:44:37.777Z,45.40
2023-04-15T13:47:04.839Z,43.40
2023-04-15T13:49:31.953Z,42.70
2023-04-15T13:51:59.049Z,42.00
2023-04-15T13:54:26.057Z,41.50
2023-04-15T13:57:05.348Z,42.30
2023-04-15T13:59:34.280Z,43.60
2023-04-15T14:02:01.483Z,44.40
2023-04-15T14:04:28.600Z,44.60
2023-04-15T14:06:56.148Z,44.70
2023-04-15T14:09:26.274Z,44.00
2023-04-15T14:11:53.425Z,44.00
2023-04-15T14:14:20.327Z,44.20
2023-04-15T14:16:47.940Z,44.10
2023-04-15T14:19:14.941Z,43.80
2023-04-15T14:21:42.064Z,43.60
2023-04-15T14:24:09.152Z,43.40
2023-04-15T14:26:36.112Z,42.90
2023-04-15T14:29:03.206Z,43.20
2023-04-15T14:31:30.358Z,43.80
2023-04-15T14:33:57.233Z,43.80
2023-04-15T14:36:24.147Z,44.00
2023-04-15T14:38:51.125Z,44.40
2023-04-15T14:41:18.014Z,44.70
2023-04-15T14:43:44.940Z,45.30
2023-04-15T14:46:11.885Z,46.40
2023-04-15T14:48:39.691Z,47.40
2023-04-15T14:51:06.935Z,47.60
2023-04-15T14:53:34.038Z,48.00
2023-04-15T14:56:00.952Z,47.90
2023-04-15T14:58:27.792Z,47.80
2023-04-15T15:00:54.728Z,47.40
2023-04-15T15:03:21.727Z,47.90
2023-04-15T15:05:48.792Z,48.20
2023-04-15T15:08:15.765Z,47.70
2023-04-15T15:10:49.091Z,47.50
2023-04-15T15:13:16.860Z,47.50
2023-04-15T15:15:44.075Z,47.40
2023-04-15T15:18:11.226Z,47.40
2023-04-15T15:20:38.115Z,47.40
2023-04-15T15:23:04.968Z,47.40
2023-04-15T15:25:31.938Z,47.40
2023-04-15T15:27:58.969Z,47.30
2023-04-15T15:30:26.102Z,47.40
2023-04-15T15:32:53.331Z,47.80
2023-04-15T15:35:20.581Z,48.30
2023-04-15T15:37:47.453Z,48.80
2023-04-15T15:40:14.590Z,49.30
2023-04-15T15:42:42.682Z,49.90
2023-04-15T15:45:09.873Z,50.10
2023-04-15T15:47:36.955Z,49.80
2023-04-15T15:50:06.020Z,49.60
2023-04-15T15:52:33.238Z,49.20
2023-04-15T15:55:01.910Z,49.40
2023-04-15T15:57:28.845Z,49.30
2023-04-15T16:00:10.439Z,48.90
2023-04-15T16:03:05.331Z,48.80
2023-04-15T16:05:26.632Z,48.20
2023-04-15T16:07:53.564Z,48.00
2023-04-15T16:10:21.287Z,48.30
2023-04-15T16:12:48.364Z,48.60
2023-04-15T16:15:15.316Z,49.00
2023-04-15T16:17:42.248Z,49.40
2023-04-15T16:20:09.368Z,49.80
2023-04-15T16:22:36.410Z,50.00
2023-04-15T16:25:03.634Z,50.30
2023-04-15T16:27:31.412Z,50.50
2023-04-15T16:29:58.346Z,50.70
2023-04-15T16:32:25.436Z,50.60
2023-04-15T16:34:52.785Z,50.30
2023-04-15T16:37:20.867Z,50.30
2023-04-15T16:39:48.094Z,50.60
2023-04-15T16:42:14.989Z,50.90
2023-04-15T16:44:41.779Z,51.40
2023-04-15T16:47:11.209Z,52.50
2023-04-15T16:49:41.057Z,52.40
2023-04-15T16:52:07.881Z,52.90
2023-04-15T16:54:37.761Z,53.00
2023-04-15T16:57:04.668Z,53.30
2023-04-15T16:59:31.599Z,53.00
2023-04-15T17:01:58.565Z,52.80
2023-04-15T17:04:25.888Z,52.60
2023-04-15T17:06:53.114Z,52.10
2023-04-15T17:09:20.098Z,52.00
2023-04-15T17:11:48.147Z,51.80
2023-04-15T17:14:15.104Z,51.80
2023-04-15T17:16:43.194Z,51.60
2023-04-15T17:19:10.090Z,51.40
2023-04-15T17:21:37.131Z,51.40
2023-04-15T17:24:04.313Z,51.40
2023-04-15T17:26:31.933Z,51.60
2023-04-15T17:28:58.829Z,51.90
2023-04-15T17:31:25.743Z,52.30
2023-04-15T17:34:02.213Z,52.50
2023-04-15T17:36:37.085Z,53.30
2023-04-15T17:39:04.658Z,52.80
2023-04-15T17:41:31.681Z,53.20
2023-04-15T17:43:58.483Z,53.70
2023-04-15T17:46:25.468Z,54.10
2023-04-15T17:48:52.463Z,54.80
2023-04-15T17:51:19.362Z,55.00
2023-04-15T17:53:46.171Z,55.30
2023-04-15T17:56:13.099Z,55.60
2023-04-15T17:58:39.962Z,55.90
2023-04-15T18:01:06.882Z,56.10
2023-04-15T18:03:33.829Z,56.40
2023-04-15T18:06:01.377Z,56.80
2023-04-15T18:08:29.240Z,57.10
2023-04-15T18:10:56.474Z,57.40
2023-04-15T18:13:23.595Z,57.60
2023-04-15T18:15:54.396Z,57.90
2023-04-15T18:18:21.733Z,58.50
2023-04-15T18:20:48.740Z,59.10
2023-04-15T18:23:15.970Z,59.60
2023-04-15T18:25:43.949Z,59.90
2023-04-15T18:28:11.042Z,60.40
2023-04-15T18:30:38.516Z,60.80
2023-04-15T18:33:06.358Z,61.20
2023-04-15T18:35:35.210Z,61.60
2023-04-15T18:38:02.562Z,61.90
2023-04-15T18:40:29.943Z,62.20
2023-04-15T18:42:56.906Z,62.50
2023-04-15T18:45:24.196Z,63.30
2023-04-15T18:47:51.622Z,63.30
2023-04-15T18:50:18.717Z,63.50
2023-04-15T18:52:45.760Z,64.00
2023-04-15T18:55:12.955Z,64.00
2023-04-15T18:57:42.701Z,64.20
2023-04-15T19:00:13.430Z,64.30
2023-04-15T19:02:40.740Z,64.50
2023-04-15T19:05:08.468Z,64.30
2023-04-15T19:07:36.413Z,64.40
2023-04-15T19:10:06.322Z,64.60
2023-04-15T19:12:34.321Z,64.80
2023-04-15T19:15:01.495Z,64.60
2023-04-15T19:17:28.541Z,64.40
2023-04-15T19:19:55.728Z,64.30
2023-04-15T19:22:23.201Z,64.20
2023-04-15T19:24:51.916Z,64.20
2023-04-15T19:27:18.834Z,64.60
2023-04-15T19:29:46.317Z,64.70
2023-04-15T19:32:14.354Z,64.80
2023-04-15T19:34:42.070Z,64.90
2023-04-15T19:37:09.064Z,65.20
2023-04-15T19:39:36.118Z,65.30
2023-04-15T19:42:03.509Z,65.40
2023-04-15T19:44:30.513Z,65.80
2023-04-15T19:46:58.405Z,66.10
2023-04-15T19:49:26.594Z,66.80
2023-04-15T19:51:53.662Z,67.00
2023-04-15T19:54:21.134Z,67.10
2023-04-15T19:56:48.169Z,67.40
2023-04-15T19:59:15.251Z,67.80
2023-04-15T20:01:42.316Z,67.80
2023-04-15T20:04:09.587Z,67.80
2023-04-15T20:06:36.928Z,67.60
2023-04-15T20:09:04.398Z,67.70
2023-04-15T20:12:46.958Z,67.70
2023-04-15T20:14:19.362Z,67.80
2023-04-15T20:16:46.570Z,68.60
2023-04-15T20:19:13.939Z,68.30
2023-04-15T20:21:41.276Z,68.50
2023-04-15T20:24:08.767Z,68.90
2023-04-15T20:26:36.323Z,69.10
2023-04-15T20:29:03.529Z,69.50
2023-04-15T20:31:30.819Z,69.50
2023-04-15T20:33:57.922Z,69.60
2023-04-15T20:36:24.965Z,69.80
2023-04-15T20:38:52.043Z,70.00
2023-04-15T20:41:19.080Z,70.00
2023-04-15T20:43:46.024Z,70.00
2023-04-15T20:46:20.613Z,70.10
2023-04-15T20:48:48.490Z,70.20
2023-04-15T20:51:15.535Z,70.20
2023-04-15T20:53:42.716Z,70.40
2023-04-15T20:56:10.073Z,70.40
2023-04-15T20:58:38.646Z,70.40
2023-04-15T21:01:05.865Z,70.30
2023-04-15T21:03:33.045Z,70.30
2023-04-15T21:06:00.118Z,70.30
2023-04-15T21:08:29.764Z,70.50
2023-04-15T21:10:57.446Z,70.50
2023-04-15T21:13:24.503Z,70.70
2023-04-15T21:15:54.427Z,70.60
2023-04-15T21:18:23.133Z,70.60
2023-04-15T21:21:00.619Z,70.60
2023-04-15T21:23:31.531Z,70.70
2023-04-15T21:25:59.046Z,70.70
2023-04-15T21:28:28.124Z,70.60
2023-04-15T21:30:56.111Z,70.30
2023-04-15T21:33:23.165Z,70.20
2023-04-15T21:35:50.062Z,70.40
2023-04-15T21:38:17.312Z,70.60
2023-04-15T21:40:44.269Z,70.80
2023-04-15T21:43:11.215Z,70.90
2023-04-15T21:45:43.543Z,70.90
2023-04-15T21:48:31.441Z,71.00
2023-04-15T21:50:59.594Z,71.00
2023-04-15T21:53:26.836Z,71.30
2023-04-15T21:55:54.252Z,71.20
2023-04-15T21:58:21.303Z,71.20
2023-04-15T22:00:48.336Z,71.10
2023-04-15T22:03:16.463Z,71.10
2023-04-15T22:05:46.611Z,71.10
2023-04-15T22:08:13.622Z,71.10
2023-04-15T22:10:40.761Z,71.00
2023-04-15T22:13:11.028Z,71.10
2023-04-15T22:15:38.390Z,71.20
2023-04-15T22:18:06.040Z,71.30
2023-04-15T22:20:33.023Z,71.20
2023-04-15T22:23:00.220Z,71.20
2023-04-15T22:25:27.159Z,71.10
2023-04-15T22:27:54.064Z,71.10
2023-04-15T22:30:21.082Z,71.10
2023-04-15T22:32:48.087Z,71.10
2023-04-15T22:35:15.109Z,71.00
2023-04-15T22:37:42.075Z,71.00
2023-04-15T22:40:09.688Z,71.00
2023-04-15T22:42:36.694Z,70.90
2023-04-15T22:45:03.808Z,71.10
2023-04-15T22:47:30.820Z,71.20
2023-04-15T22:49:57.720Z,71.30
2023-04-15T22:52:30.695Z,71.30
2023-04-15T22:54:59.037Z,71.30
2023-04-15T22:57:27.869Z,71.20
2023-04-15T22:59:55.048Z,71.10
2023-04-15T23:02:22.231Z,70.90
2023-04-15T23:04:49.446Z,70.90
2023-04-15T23:07:16.578Z,71.00
2023-04-15T23:09:43.597Z,71.00
2023-04-15T23:12:10.945Z,70.90
2023-04-15T23:14:38.014Z,70.90
2023-04-15T23:17:05.091Z,71.10
2023-04-15T23:19:32.113Z,71.20
2023-04-15T23:21:59.225Z,71.40
2023-04-15T23:24:26.313Z,71.70
2023-04-15T23:26:53.363Z,71.60
2023-04-15T23:29:20.395Z,71.80
2023-04-15T23:31:47.514Z,72.90
2023-04-15T23:34:14.599Z,72.30
2023-04-15T23:36:41.654Z,72.60
2023-04-15T23:39:09.050Z,72.80
2023-04-15T23:41:36.709Z,72.90
2023-04-15T23:44:03.843Z,72.90
2023-04-15T23:46:31.123Z,72.90
2023-04-15T23:48:58.235Z,73.00
2023-04-15T23:51:25.447Z,72.90
2023-04-15T23:53:52.497Z,72.70
2023-04-15T23:56:19.650Z,72.50
2023-04-15T23:58:46.725Z,72.30
